createdAt,value
2018-07-08T00:00:41.533Z,0
2018-07-08T00:01:41.524Z,0
2018-07-08T00:02:41.527Z,0
2018-07-08T00:03:41.529Z,0
2018-07-08T00:04:41.501Z,0
2018-07-08T00:05:41.252Z,0
2018-07-08T00:06:41.692Z,0
2018-07-08T00:07:41.500Z,0
2018-07-08T00:08:41.496Z,0
2018-07-08T00:09:41.480Z,0
2018-07-08T00:10:41.224Z,0
2018-07-08T00:11:41.226Z,0
2018-07-08T00:12:41.467Z,0
2018-07-08T00:13:41.467Z,0
2018-07-08T00:14:41.460Z,0
2018-07-08T00:15:41.459Z,0
2018-07-08T00:16:41.464Z,0
2018-07-08T00:17:41.193Z,0
2018-07-08T00:18:41.447Z,0
2018-07-08T00:19:41.190Z,0
2018-07-08T00:20:41.434Z,0
2018-07-08T00:21:41.425Z,0
2018-07-08T00:22:41.196Z,0
2018-07-08T00:23:41.418Z,0
2018-07-08T00:24:41.417Z,0
2018-07-08T00:25:41.416Z,0
2018-07-08T00:26:41.407Z,0
2018-07-08T00:27:41.154Z,0
2018-07-08T00:28:41.406Z,0
2018-07-08T00:29:41.396Z,0
2018-07-08T00:30:41.387Z,0
2018-07-08T00:31:41.146Z,0
2018-07-08T00:32:41.382Z,0
2018-07-08T00:33:41.382Z,0
2018-07-08T00:34:41.119Z,0
2018-07-08T00:35:41.115Z,0
2018-07-08T00:36:41.366Z,0
2018-07-08T00:37:41.107Z,0
2018-07-08T00:38:41.367Z,0
2018-07-08T00:39:41.360Z,0
2018-07-08T00:40:41.344Z,0
2018-07-08T00:41:41.094Z,0
2018-07-08T00:42:40.833Z,0
2018-07-08T00:43:41.338Z,0
2018-07-08T00:44:41.327Z,0
2018-07-08T00:45:41.074Z,0
2018-07-08T00:46:41.321Z,0
2018-07-08T00:47:41.337Z,0
2018-07-08T00:48:41.332Z,0
2018-07-08T00:49:41.312Z,0
2018-07-08T00:50:41.308Z,0
2018-07-08T00:51:41.309Z,0
2018-07-08T00:52:41.045Z,0
2018-07-08T00:53:41.305Z,0
2018-07-08T00:54:41.039Z,0
2018-07-08T00:55:40.778Z,0
2018-07-08T00:56:41.280Z,0
2018-07-08T00:57:41.528Z,0
2018-07-08T00:58:41.322Z,0
2018-07-08T00:59:41.030Z,0
2018-07-08T01:00:41.352Z,0
2018-07-08T01:01:41.496Z,0
2018-07-08T01:02:41.258Z,0
2018-07-08T01:03:41.248Z,0
2018-07-08T01:04:41.004Z,0
2018-07-08T01:05:41.266Z,0
2018-07-08T01:06:41.243Z,0
2018-07-08T01:07:41.234Z,0
2018-07-08T01:08:41.404Z,0
2018-07-08T01:09:41.242Z,0
2018-07-08T01:10:41.259Z,0
2018-07-08T01:11:40.964Z,0
2018-07-08T01:12:40.968Z,0
2018-07-08T01:13:41.233Z,0
2018-07-08T01:14:41.222Z,0
2018-07-08T01:15:41.201Z,0
2018-07-08T01:16:41.193Z,0
2018-07-08T01:17:41.192Z,0
2018-07-08T01:18:41.193Z,0
2018-07-08T01:19:40.929Z,0
2018-07-08T01:20:41.198Z,0
2018-07-08T01:21:41.172Z,0
2018-07-08T01:22:41.171Z,0
2018-07-08T01:23:41.166Z,0
2018-07-08T01:24:41.159Z,0
2018-07-08T01:25:41.177Z,0
2018-07-08T01:26:41.153Z,0
2018-07-08T01:27:40.902Z,0
2018-07-08T01:28:41.390Z,0
2018-07-08T01:29:41.135Z,0
2018-07-08T01:30:41.135Z,0
2018-07-08T01:31:41.124Z,0
2018-07-08T01:32:40.877Z,0
2018-07-08T01:33:40.615Z,0
2018-07-08T01:34:41.123Z,0
2018-07-08T01:35:41.108Z,0
2018-07-08T01:36:41.108Z,0
2018-07-08T01:37:40.849Z,0
2018-07-08T01:38:40.848Z,0
2018-07-08T01:39:41.091Z,0
2018-07-08T01:40:41.095Z,0
2018-07-08T01:41:41.091Z,0
2018-07-08T01:42:41.082Z,0
2018-07-08T01:43:41.080Z,0
2018-07-08T01:44:40.581Z,0
2018-07-08T01:45:41.071Z,0
2018-07-08T01:46:40.827Z,0
2018-07-08T01:47:40.804Z,0
2018-07-08T01:48:41.062Z,0
2018-07-08T01:49:41.054Z,0
2018-07-08T01:50:41.044Z,0
2018-07-08T01:51:41.037Z,0
2018-07-08T01:52:41.038Z,0
2018-07-08T01:53:41.038Z,0
2018-07-08T01:54:41.036Z,0
2018-07-08T01:55:41.024Z,0
2018-07-08T01:56:40.768Z,0
2018-07-08T01:57:40.511Z,0
2018-07-08T01:58:40.766Z,0
2018-07-08T01:59:41.259Z,0
2018-07-08T02:00:41.013Z,0
2018-07-08T02:01:40.995Z,4
2018-07-08T02:02:40.987Z,4
2018-07-08T02:03:40.987Z,4
2018-07-08T02:04:40.980Z,0
2018-07-08T02:05:40.986Z,0
2018-07-08T02:06:41.019Z,4
2018-07-08T02:07:40.715Z,4
2018-07-08T02:08:40.982Z,0
2018-07-08T02:09:40.960Z,4
2018-07-08T02:10:40.958Z,4
2018-07-08T02:11:40.956Z,4
2018-07-08T02:12:40.944Z,4
2018-07-08T02:13:40.693Z,4
2018-07-08T02:14:40.932Z,8
2018-07-08T02:15:40.941Z,8
2018-07-08T02:16:40.428Z,8
2018-07-08T02:17:40.921Z,8
2018-07-08T02:18:40.918Z,12
2018-07-08T02:19:40.912Z,12
2018-07-08T02:20:40.908Z,16
2018-07-08T02:21:40.901Z,16
2018-07-08T02:22:41.297Z,16
2018-07-08T02:23:40.657Z,20
2018-07-08T02:24:40.382Z,20
2018-07-08T02:25:40.882Z,20
2018-07-08T02:26:40.623Z,28
2018-07-08T02:27:40.871Z,28
2018-07-08T02:28:40.866Z,32
2018-07-08T02:29:40.614Z,36
2018-07-08T02:30:41.135Z,36
2018-07-08T02:31:40.350Z,40
2018-07-08T02:32:40.861Z,44
2018-07-08T02:33:40.858Z,48
2018-07-08T02:34:40.597Z,52
2018-07-08T02:35:40.090Z,60
2018-07-08T02:36:40.830Z,64
2018-07-08T02:37:40.829Z,72
2018-07-08T02:38:40.827Z,76
2018-07-08T02:39:40.825Z,80
2018-07-08T02:40:40.817Z,88
2018-07-08T02:41:40.823Z,96
2018-07-08T02:42:40.808Z,100
2018-07-08T02:43:40.802Z,112
2018-07-08T02:44:40.810Z,116
2018-07-08T02:45:40.805Z,124
2018-07-08T02:46:40.796Z,128
2018-07-08T02:47:40.545Z,136
2018-07-08T02:48:40.530Z,144
2018-07-08T02:49:40.773Z,156
2018-07-08T02:50:40.519Z,168
2018-07-08T02:51:40.765Z,176
2018-07-08T02:52:40.517Z,188
2018-07-08T02:53:40.757Z,196
2018-07-08T02:54:40.238Z,212
2018-07-08T02:55:40.487Z,224
2018-07-08T02:56:40.786Z,236
2018-07-08T02:57:40.742Z,256
2018-07-08T02:58:40.722Z,276
2018-07-08T02:59:40.721Z,296
2018-07-08T03:00:40.483Z,316
2018-07-08T03:01:40.713Z,340
2018-07-08T03:02:40.710Z,376
2018-07-08T03:03:40.695Z,416
2018-07-08T03:04:40.692Z,460
2018-07-08T03:05:40.446Z,520
2018-07-08T03:06:40.687Z,592
2018-07-08T03:07:40.678Z,676
2018-07-08T03:08:40.683Z,772
2018-07-08T03:09:40.675Z,872
2018-07-08T03:10:40.418Z,960
2018-07-08T03:11:40.670Z,1048
2018-07-08T03:12:40.658Z,1140
2018-07-08T03:13:40.651Z,1208
2018-07-08T03:14:40.658Z,1244
2018-07-08T03:15:40.397Z,1316
2018-07-08T03:16:40.646Z,1384
2018-07-08T03:17:40.646Z,1456
2018-07-08T03:18:40.636Z,1520
2018-07-08T03:19:40.624Z,1572
2018-07-08T03:20:40.629Z,1620
2018-07-08T03:21:40.617Z,1664
2018-07-08T03:22:40.368Z,1704
2018-07-08T03:23:40.606Z,1744
2018-07-08T03:24:40.608Z,1776
2018-07-08T03:25:40.596Z,1828
2018-07-08T03:26:40.592Z,1892
2018-07-08T03:27:40.603Z,1956
2018-07-08T03:28:40.586Z,2016
2018-07-08T03:29:40.324Z,2076
2018-07-08T03:30:40.582Z,2144
2018-07-08T03:31:40.570Z,2212
2018-07-08T03:32:40.572Z,2276
2018-07-08T03:33:40.060Z,2328
2018-07-08T03:34:40.556Z,2344
2018-07-08T03:35:40.553Z,2348
2018-07-08T03:36:40.293Z,2344
2018-07-08T03:37:40.296Z,2328
2018-07-08T03:38:40.284Z,2312
2018-07-08T03:39:40.278Z,2372
2018-07-08T03:40:40.536Z,2464
2018-07-08T03:41:40.523Z,2264
2018-07-08T03:42:40.558Z,2352
2018-07-08T03:43:40.264Z,2060
2018-07-08T03:44:40.255Z,1996
2018-07-08T03:45:40.510Z,2160
2018-07-08T03:46:40.501Z,2568
2018-07-08T03:47:40.504Z,2672
2018-07-08T03:48:40.498Z,2832
2018-07-08T03:49:39.986Z,3064
2018-07-08T03:50:40.516Z,3172
2018-07-08T03:51:39.974Z,3420
2018-07-08T03:52:40.219Z,3628
2018-07-08T03:53:40.473Z,3840
2018-07-08T03:54:40.462Z,4276
2018-07-08T03:55:40.478Z,4148
2018-07-08T03:56:40.209Z,4788
2018-07-08T03:57:40.207Z,4300
2018-07-08T03:58:40.447Z,4980
2018-07-08T03:59:40.445Z,5132
2018-07-08T04:00:40.484Z,5168
2018-07-08T04:01:40.190Z,5216
2018-07-08T04:02:40.432Z,4880
2018-07-08T04:03:40.433Z,5324
2018-07-08T04:04:40.177Z,5640
2018-07-08T04:05:40.433Z,5836
2018-07-08T04:06:40.420Z,6052
2018-07-08T04:07:40.420Z,6456
2018-07-08T04:08:40.468Z,6508
2018-07-08T04:09:40.430Z,6012
2018-07-08T04:10:40.159Z,5708
2018-07-08T04:11:40.414Z,5988
2018-07-08T04:12:40.410Z,6184
2018-07-08T04:13:40.404Z,6364
2018-07-08T04:14:40.414Z,6588
2018-07-08T04:15:40.166Z,6908
2018-07-08T04:16:40.402Z,8064
2018-07-08T04:17:40.401Z,9836
2018-07-08T04:18:40.399Z,10224
2018-07-08T04:19:40.144Z,10312
2018-07-08T04:20:40.140Z,8572
2018-07-08T04:21:40.397Z,8516
2018-07-08T04:22:40.398Z,9864
2018-07-08T04:23:40.388Z,8588
2018-07-08T04:24:40.394Z,8612
2018-07-08T04:25:40.142Z,8648
2018-07-08T04:26:40.385Z,8528
2018-07-08T04:27:40.382Z,8236
2018-07-08T04:28:40.430Z,7680
2018-07-08T04:29:40.381Z,7028
2018-07-08T04:30:40.389Z,6316
2018-07-08T04:31:40.392Z,5708
2018-07-08T04:32:40.377Z,5356
2018-07-08T04:33:40.389Z,5200
2018-07-08T04:34:40.129Z,5564
2018-07-08T04:35:40.630Z,7244
2018-07-08T04:36:40.377Z,6696
2018-07-08T04:37:40.374Z,6748
2018-07-08T04:38:40.369Z,6436
2018-07-08T04:39:40.380Z,6592
2018-07-08T04:40:40.371Z,6396
2018-07-08T04:41:40.370Z,6772
2018-07-08T04:42:40.366Z,6104
2018-07-08T04:43:40.371Z,6088
2018-07-08T04:44:40.362Z,6040
2018-07-08T04:45:40.363Z,6180
2018-07-08T04:46:40.115Z,6592
2018-07-08T04:47:40.119Z,6984
2018-07-08T04:48:40.358Z,7292
2018-07-08T04:49:40.360Z,7960
2018-07-08T04:50:40.357Z,9052
2018-07-08T04:51:40.103Z,10100
2018-07-08T04:52:40.101Z,10956
2018-07-08T04:53:40.101Z,11540
2018-07-08T04:54:40.349Z,12004
2018-07-08T04:55:40.352Z,12572
2018-07-08T04:56:40.346Z,14312
2018-07-08T04:57:40.346Z,16800
2018-07-08T04:58:40.350Z,17664
2018-07-08T04:59:40.093Z,16768
2018-07-08T05:00:40.100Z,17504
2018-07-08T05:01:40.347Z,17056
2018-07-08T05:02:40.089Z,16640
2018-07-08T05:03:40.091Z,16768
2018-07-08T05:04:40.356Z,18336
2018-07-08T05:05:40.371Z,18720
2018-07-08T05:06:40.940Z,18752
2018-07-08T05:07:40.340Z,18880
2018-07-08T05:08:40.336Z,17952
2018-07-08T05:09:40.338Z,19200
2018-07-08T05:10:40.339Z,20384
2018-07-08T05:11:40.083Z,24128
2018-07-08T05:12:40.335Z,21728
2018-07-08T05:13:40.333Z,20768
2018-07-08T05:14:40.332Z,26912
2018-07-08T05:15:40.086Z,30016
2018-07-08T05:16:40.341Z,28288
2018-07-08T05:17:40.086Z,26112
2018-07-08T05:18:40.084Z,25280
2018-07-08T05:19:40.336Z,33632
2018-07-08T05:20:40.093Z,34304
2018-07-08T05:21:40.344Z,34272
2018-07-08T05:22:40.103Z,34112
2018-07-08T05:23:40.098Z,33120
2018-07-08T05:24:40.352Z,26080
2018-07-08T05:25:40.358Z,19616
2018-07-08T05:26:40.362Z,18752
2018-07-08T05:27:40.362Z,15648
2018-07-08T05:28:40.110Z,13324
2018-07-08T05:29:40.114Z,12784
2018-07-08T05:30:40.384Z,13116
2018-07-08T05:31:40.380Z,13616
2018-07-08T05:32:40.129Z,14764
2018-07-08T05:33:40.387Z,17280
2018-07-08T05:34:40.392Z,18144
2018-07-08T05:35:40.533Z,22496
2018-07-08T05:36:40.143Z,21856
2018-07-08T05:37:40.652Z,18336
2018-07-08T05:38:40.402Z,22816
2018-07-08T05:39:40.407Z,21440
2018-07-08T05:40:40.412Z,19040
2018-07-08T05:41:40.168Z,20320
2018-07-08T05:42:40.417Z,21312
2018-07-08T05:43:40.478Z,19200
2018-07-08T05:44:40.426Z,16256
2018-07-08T05:45:40.434Z,15256
2018-07-08T05:46:40.184Z,15112
2018-07-08T05:47:40.189Z,15244
2018-07-08T05:48:39.940Z,15284
2018-07-08T05:49:40.447Z,21344
2018-07-08T05:50:40.514Z,18912
2018-07-08T05:51:39.948Z,32448
2018-07-08T05:52:40.203Z,36576
2018-07-08T05:53:40.463Z,27872
2018-07-08T05:54:40.463Z,28576
2018-07-08T05:55:39.981Z,38912
2018-07-08T05:56:39.969Z,39424
2018-07-08T05:57:40.478Z,26144
2018-07-08T05:58:40.227Z,25632
2018-07-08T05:59:40.234Z,25280
2018-07-08T06:00:40.492Z,24544
2018-07-08T06:01:40.491Z,34560
2018-07-08T06:02:40.498Z,31808
2018-07-08T06:03:40.501Z,23232
2018-07-08T06:04:40.506Z,22432
2018-07-08T06:05:40.258Z,23520
2018-07-08T06:06:40.262Z,24128
2018-07-08T06:07:40.521Z,21344
2018-07-08T06:08:40.275Z,21376
2018-07-08T06:09:40.533Z,21856
2018-07-08T06:10:40.543Z,18528
2018-07-08T06:11:40.291Z,15400
2018-07-08T06:12:40.295Z,14244
2018-07-08T06:13:40.547Z,13804
2018-07-08T06:14:40.556Z,13440
2018-07-08T06:15:40.312Z,12240
2018-07-08T06:16:40.566Z,11256
2018-07-08T06:17:40.316Z,11212
2018-07-08T06:18:40.318Z,11996
2018-07-08T06:19:40.072Z,13516
2018-07-08T06:20:40.583Z,14776
2018-07-08T06:21:40.631Z,14704
2018-07-08T06:22:40.095Z,14752
2018-07-08T06:23:40.592Z,14160
2018-07-08T06:24:40.596Z,13032
2018-07-08T06:25:40.597Z,12336
2018-07-08T06:26:40.400Z,12460
2018-07-08T06:27:40.357Z,12864
2018-07-08T06:28:40.614Z,11480
2018-07-08T06:29:40.357Z,11068
2018-07-08T06:30:40.426Z,10216
2018-07-08T06:31:40.728Z,10672
2018-07-08T06:32:40.622Z,11860
2018-07-08T06:33:40.626Z,11932
2018-07-08T06:34:40.373Z,11568
2018-07-08T06:35:40.124Z,12100
2018-07-08T06:36:40.125Z,13312
2018-07-08T06:37:40.127Z,12680
2018-07-08T06:38:40.384Z,11872
2018-07-08T06:39:40.631Z,11924
2018-07-08T06:40:40.641Z,12380
2018-07-08T06:41:40.644Z,13212
2018-07-08T06:42:40.638Z,14436
2018-07-08T06:43:40.388Z,15808
2018-07-08T06:44:40.393Z,15448
2018-07-08T06:45:40.571Z,14928
2018-07-08T06:46:40.647Z,15016
2018-07-08T06:47:40.650Z,17248
2018-07-08T06:48:40.645Z,19776
2018-07-08T06:49:40.405Z,18336
2018-07-08T06:50:40.656Z,16896
2018-07-08T06:51:40.651Z,16768
2018-07-08T06:52:40.678Z,18112
2018-07-08T06:53:40.652Z,18048
2018-07-08T06:54:40.656Z,17120
2018-07-08T06:55:40.674Z,17280
2018-07-08T06:56:40.416Z,17536
2018-07-08T06:57:40.676Z,17504
2018-07-08T06:58:40.669Z,19488
2018-07-08T06:59:40.418Z,20480
2018-07-08T07:00:40.667Z,22272
2018-07-08T07:01:40.665Z,23232
2018-07-08T07:02:40.413Z,25056
2018-07-08T07:03:40.673Z,29600
2018-07-08T07:04:40.421Z,50080
2018-07-08T07:05:40.420Z,33792
2018-07-08T07:06:40.774Z,26304
2018-07-08T07:07:40.432Z,26752
2018-07-08T07:08:40.686Z,44832
2018-07-08T07:09:40.434Z,46976
2018-07-08T07:10:40.191Z,34432
2018-07-08T07:11:40.942Z,30816
2018-07-08T07:12:40.690Z,26944
2018-07-08T07:13:40.694Z,26240
2018-07-08T07:14:40.709Z,43136
2018-07-08T07:15:40.450Z,35136
2018-07-08T07:16:40.713Z,37856
2018-07-08T07:17:40.662Z,24512
2018-07-08T07:18:40.470Z,25696
2018-07-08T07:19:40.464Z,51680
2018-07-08T07:20:40.722Z,63456
2018-07-08T07:21:40.474Z,41824
2018-07-08T07:22:40.478Z,38368
2018-07-08T07:23:40.738Z,50688
2018-07-08T07:24:40.746Z,35968
2018-07-08T07:25:40.499Z,40544
2018-07-08T07:26:40.501Z,35520
2018-07-08T07:27:40.760Z,49312
2018-07-08T07:28:41.133Z,33696
2018-07-08T07:29:40.775Z,44800
2018-07-08T07:30:40.529Z,49952
2018-07-08T07:31:40.535Z,37728
2018-07-08T07:32:40.801Z,62144
2018-07-08T07:33:40.798Z,42272
2018-07-08T07:34:40.805Z,33376
2018-07-08T07:35:40.806Z,32960
2018-07-08T07:36:40.564Z,29376
2018-07-08T07:37:40.833Z,41120
2018-07-08T07:38:40.592Z,25568
2018-07-08T07:39:40.591Z,27456
2018-07-08T07:40:40.587Z,35360
2018-07-08T07:41:40.347Z,38240
2018-07-08T07:42:41.118Z,40448
2018-07-08T07:43:40.877Z,36960
2018-07-08T07:44:40.874Z,37792
2018-07-08T07:45:40.768Z,38368
2018-07-08T07:46:40.891Z,52928
2018-07-08T07:47:40.944Z,58080
2018-07-08T07:48:40.902Z,62496
2018-07-08T07:49:40.906Z,39776
2018-07-08T07:50:40.684Z,51296
2018-07-08T07:51:40.939Z,56192
2018-07-08T07:52:40.944Z,33472
2018-07-08T07:53:40.963Z,32000
2018-07-08T07:54:40.955Z,31424
2018-07-08T07:55:40.961Z,37024
2018-07-08T07:56:40.966Z,39456
2018-07-08T07:57:40.733Z,39616
2018-07-08T07:58:40.736Z,51648
2018-07-08T07:59:41.001Z,47840
2018-07-08T08:00:40.758Z,37600
2018-07-08T08:01:41.022Z,46432
2018-07-08T08:02:41.042Z,44832
2018-07-08T08:03:41.041Z,55520
2018-07-08T08:04:41.048Z,53024
2018-07-08T08:05:41.058Z,77088
2018-07-08T08:06:41.066Z,78720
2018-07-08T08:07:41.085Z,41120
2018-07-08T08:08:40.605Z,43936
2018-07-08T08:09:41.095Z,42848
2018-07-08T08:10:41.173Z,50368
2018-07-08T08:11:41.082Z,50880
2018-07-08T08:12:40.633Z,51648
2018-07-08T08:13:40.885Z,73824
2018-07-08T08:14:41.161Z,51488
2018-07-08T08:15:41.194Z,54880
2018-07-08T08:16:41.183Z,45664
2018-07-08T08:17:41.224Z,37088
2018-07-08T08:18:41.192Z,29760
2018-07-08T08:19:40.965Z,30944
2018-07-08T08:20:41.213Z,28192
2018-07-08T08:21:40.977Z,22624
2018-07-08T08:22:41.275Z,23232
2018-07-08T08:23:41.269Z,20800
2018-07-08T08:24:41.271Z,23328
2018-07-08T08:25:41.022Z,25024
2018-07-08T08:26:40.819Z,29024
2018-07-08T08:27:41.339Z,33088
2018-07-08T08:28:41.313Z,34720
2018-07-08T08:29:41.316Z,33088
2018-07-08T08:30:41.323Z,30176
2018-07-08T08:31:41.380Z,27680
2018-07-08T08:32:41.175Z,28800
2018-07-08T08:33:41.104Z,30944
2018-07-08T08:34:41.363Z,30144
2018-07-08T08:35:41.374Z,27616
2018-07-08T08:36:41.395Z,27520
2018-07-08T08:37:41.412Z,28672
2018-07-08T08:38:41.405Z,30016
2018-07-08T08:39:41.403Z,30976
2018-07-08T08:40:41.418Z,35488
2018-07-08T08:41:41.426Z,46112
2018-07-08T08:42:41.454Z,34336
2018-07-08T08:43:41.444Z,44448
2018-07-08T08:44:41.199Z,42208
2018-07-08T08:45:41.464Z,44608
2018-07-08T08:46:41.480Z,60288
2018-07-08T08:47:41.217Z,40448
2018-07-08T08:48:41.227Z,38496
2018-07-08T08:49:41.492Z,36896
2018-07-08T08:50:41.501Z,32256
2018-07-08T08:51:41.253Z,35744
2018-07-08T08:52:41.647Z,33824
2018-07-08T08:53:41.292Z,43424
2018-07-08T08:54:41.276Z,47488
2018-07-08T08:55:41.286Z,99584
2018-07-08T08:56:41.053Z,50592
2018-07-08T08:57:41.568Z,100576
2018-07-08T08:58:41.578Z,95200
2018-07-08T08:59:41.582Z,41152
2018-07-08T09:00:41.579Z,74240
2018-07-08T09:01:41.598Z,57536
2018-07-08T09:02:41.605Z,30304
2018-07-08T09:03:41.427Z,31776
2018-07-08T09:04:41.637Z,33536
2018-07-08T09:05:41.381Z,33984
2018-07-08T09:06:41.385Z,29984
2018-07-08T09:07:41.650Z,26592
2018-07-08T09:08:41.660Z,22496
2018-07-08T09:09:41.662Z,16872
2018-07-08T09:10:41.523Z,15556
2018-07-08T09:11:41.681Z,15448
2018-07-08T09:12:41.465Z,15400
2018-07-08T09:13:41.728Z,15116
2018-07-08T09:14:41.724Z,14804
2018-07-08T09:15:41.716Z,15096
2018-07-08T09:16:41.720Z,14356
2018-07-08T09:17:41.742Z,14096
2018-07-08T09:18:41.739Z,13984
2018-07-08T09:19:41.741Z,13992
2018-07-08T09:20:41.758Z,14112
2018-07-08T09:21:41.768Z,14256
2018-07-08T09:22:41.771Z,14364
2018-07-08T09:23:41.846Z,14172
2018-07-08T09:24:41.807Z,13916
2018-07-08T09:25:41.784Z,13980
2018-07-08T09:26:41.551Z,14408
2018-07-08T09:27:41.545Z,14720
2018-07-08T09:28:41.797Z,15540
2018-07-08T09:29:41.806Z,16820
2018-07-08T09:30:41.816Z,18464
2018-07-08T09:31:41.564Z,18848
2018-07-08T09:32:41.847Z,18944
2018-07-08T09:33:41.823Z,17920
2018-07-08T09:34:41.835Z,16088
2018-07-08T09:35:41.581Z,15488
2018-07-08T09:36:41.582Z,15588
2018-07-08T09:37:41.851Z,15516
2018-07-08T09:38:41.735Z,15624
2018-07-08T09:39:41.607Z,16404
2018-07-08T09:40:41.606Z,17892
2018-07-08T09:41:41.909Z,19744
2018-07-08T09:42:41.889Z,19808
2018-07-08T09:43:41.612Z,18528
2018-07-08T09:44:41.897Z,16768
2018-07-08T09:45:41.905Z,16212
2018-07-08T09:46:41.631Z,16288
2018-07-08T09:47:41.920Z,15972
2018-07-08T09:48:41.889Z,15332
2018-07-08T09:49:41.640Z,15360
2018-07-08T09:50:41.646Z,16320
2018-07-08T09:51:41.646Z,19072
2018-07-08T09:52:42.339Z,21056
2018-07-08T09:53:41.649Z,21728
2018-07-08T09:54:41.667Z,26496
2018-07-08T09:55:41.921Z,30496
2018-07-08T09:56:41.929Z,28224
2018-07-08T09:57:41.922Z,27520
2018-07-08T09:58:41.927Z,29088
2018-07-08T09:59:41.933Z,28288
2018-07-08T10:00:41.928Z,24320
2018-07-08T10:01:41.956Z,22912
2018-07-08T10:02:41.956Z,23904
2018-07-08T10:03:41.695Z,25440
2018-07-08T10:04:42.400Z,24800
2018-07-08T10:05:41.953Z,24640
2018-07-08T10:06:41.699Z,27264
2018-07-08T10:07:41.973Z,29120
2018-07-08T10:08:42.340Z,29984
2018-07-08T10:09:41.725Z,28192
2018-07-08T10:10:41.978Z,26368
2018-07-08T10:11:41.982Z,25024
2018-07-08T10:12:41.993Z,24544
2018-07-08T10:13:42.236Z,24064
2018-07-08T10:14:42.019Z,23232
2018-07-08T10:15:42.006Z,21440
2018-07-08T10:16:42.012Z,21536
2018-07-08T10:17:42.619Z,20640
2018-07-08T10:18:42.201Z,20768
2018-07-08T10:19:42.744Z,20960
2018-07-08T10:20:41.517Z,20608
2018-07-08T10:21:41.983Z,17824
2018-07-08T10:22:42.033Z,16104
2018-07-08T10:23:42.052Z,16680
2018-07-08T10:24:42.090Z,16736
2018-07-08T10:25:41.791Z,16736
2018-07-08T10:26:42.063Z,17192
2018-07-08T10:27:42.057Z,16580
2018-07-08T10:28:42.068Z,16020
2018-07-08T10:29:41.831Z,15856
2018-07-08T10:30:42.090Z,15508
2018-07-08T10:31:41.826Z,15040
2018-07-08T10:32:42.083Z,15684
2018-07-08T10:33:42.091Z,15672
2018-07-08T10:34:42.096Z,14944
2018-07-08T10:35:42.097Z,15132
2018-07-08T10:36:42.530Z,15524
2018-07-08T10:37:42.112Z,17760
2018-07-08T10:38:42.118Z,19776
2018-07-08T10:39:42.114Z,22144
2018-07-08T10:40:42.134Z,20608
2018-07-08T10:41:41.893Z,18528
2018-07-08T10:42:42.143Z,18016
2018-07-08T10:43:42.141Z,20192
2018-07-08T10:44:42.142Z,23584
2018-07-08T10:45:42.163Z,27872
2018-07-08T10:46:42.149Z,29152
2018-07-08T10:47:41.898Z,28256
2018-07-08T10:48:42.164Z,27648
2018-07-08T10:49:42.160Z,26272
2018-07-08T10:50:42.164Z,24320
2018-07-08T10:51:42.175Z,25664
2018-07-08T10:52:41.965Z,24768
2018-07-08T10:53:41.936Z,21856
2018-07-08T10:54:41.965Z,20384
2018-07-08T10:55:42.209Z,20288
2018-07-08T10:56:42.211Z,23552
2018-07-08T10:57:42.210Z,25984
2018-07-08T10:58:42.203Z,25888
2018-07-08T10:59:42.209Z,23232
2018-07-08T11:00:41.969Z,20896
2018-07-08T11:01:42.285Z,19904
2018-07-08T11:02:42.227Z,20224
2018-07-08T11:03:42.252Z,21984
2018-07-08T11:04:42.236Z,22048
2018-07-08T11:05:42.248Z,21696
2018-07-08T11:06:42.255Z,22976
2018-07-08T11:07:42.022Z,24128
2018-07-08T11:08:42.011Z,26080
2018-07-08T11:09:42.025Z,26496
2018-07-08T11:10:42.067Z,24832
2018-07-08T11:11:42.506Z,23328
2018-07-08T11:12:42.290Z,23104
2018-07-08T11:13:42.302Z,24608
2018-07-08T11:14:42.056Z,28000
2018-07-08T11:15:42.302Z,29280
2018-07-08T11:16:42.048Z,29856
2018-07-08T11:17:42.327Z,28864
2018-07-08T11:18:41.810Z,26784
2018-07-08T11:19:42.366Z,27040
2018-07-08T11:20:42.963Z,29184
2018-07-08T11:21:42.368Z,29600
2018-07-08T11:22:42.354Z,27200
2018-07-08T11:23:42.354Z,26848
2018-07-08T11:24:42.355Z,26560
2018-07-08T11:25:42.366Z,27936
2018-07-08T11:26:42.180Z,29888
2018-07-08T11:27:41.881Z,28992
2018-07-08T11:28:42.702Z,27072
2018-07-08T11:29:42.388Z,25696
2018-07-08T11:30:42.395Z,26016
2018-07-08T11:31:42.393Z,24896
2018-07-08T11:32:42.406Z,24384
2018-07-08T11:33:42.178Z,25376
2018-07-08T11:34:42.406Z,27456
2018-07-08T11:35:42.417Z,28128
2018-07-08T11:36:42.446Z,26976
2018-07-08T11:37:42.451Z,22848
2018-07-08T11:38:42.451Z,19072
2018-07-08T11:39:42.438Z,15968
2018-07-08T11:40:42.218Z,14372
2018-07-08T11:41:42.226Z,13804
2018-07-08T11:42:42.488Z,15072
2018-07-08T11:43:42.257Z,16096
2018-07-08T11:44:42.476Z,18080
2018-07-08T11:45:42.480Z,20064
2018-07-08T11:46:42.507Z,23264
2018-07-08T11:47:42.515Z,25312
2018-07-08T11:48:42.529Z,23904
2018-07-08T11:49:42.273Z,20640
2018-07-08T11:50:42.519Z,18112
2018-07-08T11:51:42.281Z,17056
2018-07-08T11:52:42.526Z,17280
2018-07-08T11:53:42.295Z,18048
2018-07-08T11:54:42.538Z,18848
2018-07-08T11:55:42.293Z,19424
2018-07-08T11:56:42.047Z,20128
2018-07-08T11:57:42.578Z,21216
2018-07-08T11:58:42.570Z,20960
2018-07-08T11:59:42.582Z,21440
2018-07-08T12:00:42.579Z,22432
2018-07-08T12:01:42.651Z,25056
2018-07-08T12:02:42.590Z,26336
2018-07-08T12:03:42.607Z,27072
2018-07-08T12:04:42.606Z,25984
2018-07-08T12:05:42.353Z,25536
2018-07-08T12:06:42.624Z,25792
2018-07-08T12:07:42.363Z,25216
2018-07-08T12:08:42.384Z,22944
2018-07-08T12:09:42.372Z,19360
2018-07-08T12:10:42.636Z,18656
2018-07-08T12:11:42.378Z,19776
2018-07-08T12:12:42.654Z,20896
2018-07-08T12:13:42.671Z,21056
2018-07-08T12:14:43.059Z,22592
2018-07-08T12:15:42.678Z,22944
2018-07-08T12:16:42.668Z,20704
2018-07-08T12:17:42.661Z,18080
2018-07-08T12:18:42.419Z,17664
2018-07-08T12:19:42.456Z,18208
2018-07-08T12:20:42.682Z,17344
2018-07-08T12:21:42.684Z,15904
2018-07-08T12:22:42.462Z,15352
2018-07-08T12:23:42.446Z,15196
2018-07-08T12:24:42.705Z,14292
2018-07-08T12:25:42.716Z,13440
2018-07-08T12:26:42.720Z,13748
2018-07-08T12:27:43.061Z,15808
2018-07-08T12:28:42.732Z,15312
2018-07-08T12:29:42.528Z,13628
2018-07-08T12:30:42.495Z,13660
2018-07-08T12:31:42.757Z,14644
2018-07-08T12:32:42.745Z,14416
2018-07-08T12:33:42.536Z,15744
2018-07-08T12:34:42.744Z,19456
2018-07-08T12:35:42.765Z,20288
2018-07-08T12:36:42.668Z,20256
2018-07-08T12:37:42.757Z,19008
2018-07-08T12:38:42.260Z,16576
2018-07-08T12:39:42.514Z,12888
2018-07-08T12:40:42.782Z,10844
2018-07-08T12:41:42.540Z,10272
2018-07-08T12:42:42.533Z,10668
2018-07-08T12:43:42.530Z,10496
2018-07-08T12:44:43.521Z,11308
2018-07-08T12:45:42.560Z,12356
2018-07-08T12:46:42.555Z,13548
2018-07-08T12:47:42.601Z,15452
2018-07-08T12:48:42.801Z,17280
2018-07-08T12:49:42.562Z,17600
2018-07-08T12:50:42.856Z,21024
2018-07-08T12:51:42.317Z,23456
2018-07-08T12:52:42.818Z,24544
2018-07-08T12:53:42.817Z,24352
2018-07-08T12:54:42.575Z,23680
2018-07-08T12:55:42.837Z,22464
2018-07-08T12:56:42.854Z,21248
2018-07-08T12:57:42.855Z,19840
2018-07-08T12:58:43.118Z,19968
2018-07-08T12:59:42.872Z,19840
2018-07-08T13:00:42.641Z,18784
2018-07-08T13:01:42.888Z,20032
2018-07-08T13:02:42.917Z,20576
2018-07-08T13:03:42.610Z,20288
2018-07-08T13:04:42.887Z,19680
2018-07-08T13:05:42.618Z,19200
2018-07-08T13:06:43.189Z,18560
2018-07-08T13:07:42.880Z,18304
2018-07-08T13:08:42.897Z,18592
2018-07-08T13:09:42.889Z,16000
2018-07-08T13:10:42.644Z,15028
2018-07-08T13:11:42.791Z,14140
2018-07-08T13:12:42.657Z,13796
2018-07-08T13:13:42.410Z,11280
2018-07-08T13:14:42.917Z,9124
2018-07-08T13:15:42.926Z,8812
2018-07-08T13:16:42.936Z,8932
2018-07-08T13:17:42.679Z,9740